Station: Miles

  Atmospheric Gas Attenuation - ITU Rec 676-11   --------------- db/100km ---------------
Date Time Temp RH % AH g/m3 Dew Point Wind Direction Speed kph Gust kph Barometer mB Rainfall Since 9am 24GHz 47GHz 76GHz 122GHz 134GHz 241GHz
27 01:50 25.9 64 15.49 18.6 7 9 1009.1 0 33.5 33.2 60.4 159.6 170.4 591.7
27 01:40 26.1 63 15.42 18.5 7 9 1009.1 0 33.3 33.0 59.9 158.4 169.0 586.8
27 01:30 26.1 63 15.42 18.5 9 11 1009 0 33.3 33.0 59.9 158.4 169.0 586.7
27 01:20 26.3 61 15.1 18.4 9 11 1009 0 32.6 32.3 58.5 154.4 164.2 569.9
27 01:10 26.4 62 15.43 18.5 7 7 1009 0 33.3 32.9 59.8 157.9 168.5 584.9
27 01:00 26.7 60 15.19 18.3 11 20 1008.8 0 32.8 32.3 58.5 154.6 164.5 571.2
27 00:50 26.8 59 15.02 18.1 11 13 1008.9 0 32.4 32.0 57.7 152.5 162.0 562.5
27 00:40 27 58 14.93 18 17 22 1009 0 32.2 31.8 57.2 151.2 160.4 556.9
27 00:30 27.2 56 14.57 17.9 13 22 1009 0 31.4 31.1 55.6 146.9 155.2 538.7
27 00:20 27.3 55 14.39 17.5 13 17 1009.3 0 31.0 30.8 54.8 144.8 152.7 529.8
27 00:10 27.5 53 14.02 17.1 9 13 1009.3 0 30.3 30.2 53.2 140.5 147.4 511.6
27 00:00 27.7 51 13.64 16.9 7 13 1009.2 0 29.4 29.5 51.6 136.2 142.1 493.2
26 23:50 28 51 13.87 16.9 7 13 1009.1 0 29.9 29.7 52.3 138.0 144.5 501.6
26 23:40 28.2 50 13.75 16.8 7 13 1009.1 0 29.6 29.5 51.7 136.4 142.6 495.0
26 23:30 28.4 49 13.62 16.7 15 24 1008.9 0 29.4 29.2 51.0 134.7 140.6 487.9
26 23:20 28.7 47 13.28 16.3 11 13 1009.1 0 28.6 28.6 49.6 130.8 135.8 471.2
26 23:10 28.8 47 13.36 16.4 15 19 1009 0 28.8 28.7 49.8 131.4 136.6 474.0
26 23:00 28.8 48 13.64 16.7 17 30 1008.9 0 29.4 29.1 50.9 134.3 140.1 486.3
26 22:50 28.2 51 14.02 17.1 11 13 1009 0 30.2 29.9 52.7 139.2 146.1 507.0
26 22:40 26.7 63 15.95 19.1 6 7 1009 0 34.4 33.6 61.7 163.1 175.0 607.7
26 22:30 26.8 59 15.02 18.1 6 7 1008.9 0 32.4 32.0 57.7 152.5 162.0 562.5
26 22:20 27.4 55 14.47 17.8 6 6 1009.1 0 31.2 30.9 55.1 145.5 153.5 532.8
26 22:10 27.6 57 15.16 18.3 6 7 1009.1 0 32.6 32.0 57.7 152.5 162.3 563.4
26 22:00 28.1 55 15.04 18.2 4 7 1009.2 0 32.3 31.6 56.9 150.3 159.6 554.3
26 21:50 28.5 51 14.26 17.4 4 6 1009.1 0 30.7 30.2 53.5 141.2 148.6 515.9
26 21:40 28.9 50 14.29 17.7 6 7 1009.1 0 30.7 30.1 53.3 140.8 148.2 514.6
26 21:30 29 52 14.94 18.4 6 9 1009 0 32.1 31.1 55.8 147.5 156.5 543.3
26 21:20 29.3 49 14.31 17.5 7 9 1009 0 30.7 30.0 53.1 140.3 147.7 512.9
26 21:10 29.8 48 14.4 17.9 6 6 1009 0 30.9 30.0 53.2 140.4 147.9 513.6
26 21:00 30 48 14.56 17.8 7 13 1008.8 0 31.2 30.1 53.6 141.7 149.6 519.4
26 20:50 29.8 50 15 18.3 7 11 1008.9 0 32.1 30.9 55.5 146.6 155.6 540.5
26 20:40 30 49 14.86 18.4 7 11 1008.9 0 31.8 30.6 54.8 144.8 153.4 532.8
26 20:30 29.6 53 15.73 19 7 15 1008.6 0 33.7 32.1 58.6 154.7 165.5 575.1
26 20:20 28.3 61 16.87 20.1 6 6 1008.5 0 36.2 34.5 64.3 170.0 183.9 639.1
26 20:10 28 65 17.68 20.8 0 0 1008.4 0 37.9 36.1 68.0 180.0 196.1 681.3
26 20:00 28.1 65 17.78 20.9 0 0 1008.3 0 38.1 36.2 68.4 180.9 197.2 685.4
26 19:50 28.3 63 17.42 20.6 0 0 1008.3 0 37.3 35.5 66.6 176.3 191.6 665.8
26 19:40 28.5 57 15.93 19.4 0 0 1008 0 34.2 32.9 60.2 159.0 170.5 592.4
26 19:30 28.6 59 16.58 19.8 0 0 1007.8 0 35.5 33.9 62.8 166.0 179.1 622.4
26 19:20 28.8 56 15.91 19.4 0 0 1007.7 0 34.1 32.7 59.8 158.2 169.6 589.0
26 19:10 28.9 54 15.43 18.9 0 0 1007.6 0 33.1 31.9 57.8 152.7 162.9 565.9
26 19:00 29.3 61 17.81 21 0 0 1007.3 0 38.1 35.7 67.4 178.3 194.4 675.8
26 18:50 30 56 16.99 20.3 0 0 1007.3 0 36.3 34.0 63.3 167.5 181.4 630.4
26 18:40 30.4 50 15.5 18.8 0 0 1007.2 0 33.1 31.4 57.0 150.6 160.7 558.2
26 18:30 30.9 43 13.69 17.2 4 9 1007 0 29.3 28.4 49.6 131.1 136.8 475.1
26 18:20 31.2 48 15.53 19.2 0 0 1007 0 33.1 31.2 56.5 149.3 159.4 553.8
26 18:10 32.1 40 13.58 16.8 4 6 1006.9 0 29.0 27.9 48.5 128.0 133.5 463.4
26 18:00 32.3 40 13.73 17 6 11 1006.7 0 29.3 28.0 48.9 129.2 134.9 468.4
26 17:50 32.4 39 13.45 16.7 7 9 1006.5 0 28.7 27.6 47.8 126.2 131.4 456.1
26 17:40 32.8 39 13.74 17.4 6 7 1006.5 0 29.3 27.9 48.6 128.4 134.1 465.9
26 17:30 32.8 38 13.39 17 7 11 1006.4 0 28.6 27.4 47.4 125.0 130.0 451.3
26 17:20 32.6 38 13.25 16.8 7 11 1006.4 0 28.3 27.2 47.0 124.0 128.6 446.6
26 17:10 32.8 38 13.39 16.6 7 9 1006.3 0 28.6 27.4 47.4 125.0 130.0 451.2
26 17:00 32.5 39 13.53 16.8 11 17 1006.3 0 28.9 27.7 48.0 126.8 132.1 458.8
26 16:50 32.8 38 13.39 16.6 4 6 1006.3 0 28.6 27.4 47.4 125.0 130.0 451.2
26 16:40 33 37 13.18 16.4 7 7 1006.3 0 28.1 27.0 46.5 122.7 127.2 441.5
26 16:30 32.9 38 13.46 16.7 7 11 1006.3 0 28.7 27.4 47.6 125.5 130.6 453.6
26 16:20 32.4 39 13.45 16.7 9 11 1006.3 0 28.7 27.6 47.8 126.2 131.3 456.0
26 16:10 33.2 36 12.96 16.5 15 17 1006.3 0 27.7 26.6 45.6 120.3 124.3 431.4
26 16:00 33.8 38 14.12 17.5 7 11 1006.3 0 30.0 28.1 49.4 130.5 137.0 475.8
26 15:50 33.1 38 13.6 16.9 7 9 1006.3 0 29.0 27.6 47.9 126.6 132.0 458.3
26 15:40 33.1 38 13.6 16.9 7 11 1006.3 0 29.0 27.6 47.9 126.6 132.0 458.3
26 15:30 33.1 39 13.96 17.3 9 17 1006.5 0 29.7 28.1 49.3 130.1 136.3 473.3
26 15:20 33.5 39 14.26 18 9 11 1006.5 0 30.3 28.4 50.1 132.4 139.2 483.5
26 15:10 32.2 39 13.31 16.5 6 11 1006.6 0 28.5 27.4 47.4 125.2 130.0 451.4
26 15:00 33.1 38 13.6 16.9 9 13 1006.8 0 29.0 27.6 48.0 126.6 132.0 458.4
26 14:50 33.1 38 13.6 16.9 6 9 1006.9 0 29.0 27.6 48.0 126.6 132.0 458.5
26 14:40 32.8 38 13.39 16.6 6 6 1007 0 28.6 27.4 47.4 125.1 130.0 451.5
26 14:30 33 39 13.89 17.2 13 17 1007.2 0 29.6 28.1 49.1 129.7 135.7 471.2
26 14:20 33 39 13.89 17.2 17 19 1007.4 0 29.6 28.1 49.1 129.7 135.7 471.3
26 14:10 32.3 40 13.73 17 17 20 1007.5 0 29.3 28.1 49.0 129.2 135.0 468.7
26 14:00 32 40 13.51 16.7 11 17 1007.6 0 28.9 27.8 48.3 127.6 132.9 461.2
26 13:50 33 42 14.96 18.4 13 15 1007.7 0 31.8 29.7 53.1 140.3 148.8 516.9
26 13:40 32.4 44 15.18 18.6 13 19 1007.9 0 32.3 30.3 54.4 143.6 152.7 530.5
26 13:30 31.7 42 13.96 17.2 9 17 1007.8 0 29.8 28.6 50.2 132.5 138.8 482.1
26 13:20 32.5 43 14.91 18.3 13 17 1008.1 0 31.7 29.8 53.3 140.7 149.1 518.1
26 13:10 32.4 40 13.8 17.1 9 11 1008.3 0 29.4 28.2 49.2 129.9 135.7 471.4
26 13:00 32.4 41 14.14 17.8 7 17 1008.3 0 30.1 28.7 50.4 133.2 139.9 485.8
26 12:50 32.3 44 15.1 18.8 9 9 1008.6 0 32.1 30.2 54.2 143.1 151.9 527.9
26 12:40 31.9 42 14.11 17.4 0 0 1008.6 0 30.1 28.8 50.7 133.8 140.4 487.6
26 12:30 32.1 42 14.26 17.6 7 13 1008.7 0 30.4 29.0 51.1 135.0 141.9 492.9
26 12:20 32 43 14.52 18.2 7 9 1008.9 0 31.0 29.4 52.2 137.8 145.3 504.8
26 12:10 32 45 15.2 18.6 11 13 1009.1 0 32.4 30.5 54.8 144.7 153.8 534.5
26 12:00 31.3 46 14.96 18.3 7 17 1009.2 0 31.9 30.3 54.3 143.5 152.2 528.7
26 11:50 31.3 48 15.61 19 9 15 1009.4 0 33.3 31.4 56.9 150.3 160.5 557.7
26 11:40 30 49 14.86 18.1 4 6 1009.4 0 31.8 30.6 54.8 144.8 153.5 533.0
26 11:30 30.5 47 14.65 17.9 6 11 1009.6 0 31.3 30.1 53.7 141.8 149.8 520.4
26 11:20 30.3 49 15.11 18.4 13 15 1009.8 0 32.3 30.9 55.6 147.0 156.1 542.4
26 11:10 30.2 49 15.02 18.6 7 9 1009.8 0 32.1 30.8 55.3 146.2 155.2 539.0
26 11:00 29.6 50 14.84 18.1 4 11 1010 0 31.8 30.8 55.1 145.4 154.1 535.0
26 10:50 30.1 52 15.86 19.2 7 11 1010.2 0 33.9 32.2 58.8 155.4 166.4 578.1
26 10:40 29.7 50 14.92 18.2 7 9 1010.3 0 32.0 30.9 55.3 146.1 154.9 538.1
26 10:30 30.2 49 15.02 18.3 7 17 1010.4 0 32.1 30.9 55.4 146.3 155.2 539.2
26 10:20 29.3 50 14.6 17.8 11 15 1010.5 0 31.3 30.5 54.4 143.5 151.6 526.5
26 10:10 29.3 52 15.18 18.7 9 13 1010.6 0 32.5 31.4 56.7 149.7 159.2 552.8
26 10:00 28.8 53 15.06 18.3 6 13 1010.6 0 32.3 31.4 56.5 149.3 158.6 550.8
26 09:50 28.5 55 15.37 18.6 9 13 1010.7 0 33.0 32.0 58.0 153.3 163.4 567.3
26 09:40 27.9 55 14.88 18 11 13 1010.7 0 32.0 31.5 56.5 149.1 158.1 548.9
26 09:30 27.5 57 15.08 18.2 13 19 1010.6 0 32.5 31.9 57.6 152.1 161.6 561.0
26 09:20 28.1 57 15.59 18.8 11 15 1010.8 0 33.5 32.6 59.2 156.5 167.2 580.6

Last Refresh: 27-Feb-2021 02:34:53

Most of the information presented on this site is sourced from the Bureau of Meteorology.  Copyright in all material sourced from the Bureau of Meteorology resides with the Commonwealth of Australia.